Eviapetrol I — SY5401 — position and weather

sailwx.info

Track history (hours):
 
Tides and Currents Weather Stations Pressure Air Temp Water Temp Dewpoint Dewpoint Depression Visibility Wind Speed Wind Dir Waves Ship Positions

Eviapetrol I

Last reported at 2014-Dec-22 06:29 UTC. Time now 2014-Dec-22 08:31 UTC.
Position N 37°38' E 023°60'.

Length 75 m; draft 4.5 m.

Type: Tanker. MMSI: 240285000.

Date/timePositionNaut miles runAvg speedWind from/ knotsBaromVisibWave heightAir tempDewpointWater temp
2014-Dec-22 06:29N 37°38' E 023°60'2 0.2
2014-Dec-21 20:08N 37°37' E 024°02'1 1.0
2014-Dec-21 19:33N 37°37' E 024°03'9 9.3
2014-Dec-21 18:32N 37°38' E 023°51'9 9.3
2014-Dec-21 17:33N 37°42' E 023°41'10 9.7
2014-Dec-21 16:34N 37°51' E 023°36'8 7.8
2014-Dec-21 15:33N 37°59' E 023°33'2 2.3
2014-Dec-21 14:33N 38°01' E 023°33'2 2.2
2014-Dec-21 13:31N 38°02' E 023°36'0 0.0
2014-Dec-21 12:31N 38°02' E 023°36'0 0.0
2014-Dec-21 11:28N 38°02' E 023°36'0 0.0
2014-Dec-21 10:31N 38°02' E 023°36'0 0.0
2014-Dec-21 09:28N 38°02' E 023°36'0 0.0
2014-Dec-21 08:31N 38°02' E 023°36'0 0.0
2014-Dec-21 07:28N 38°02' E 023°36'0 0.0
2014-Dec-21 06:31N 38°02' E 023°36'0 0.0
2014-Dec-21 05:31N 38°02' E 023°36'0 0.0
2014-Dec-21 04:28N 38°02' E 023°36'0 0.0
2014-Dec-21 03:31N 38°02' E 023°36'0 0.0
2014-Dec-21 02:31N 38°02' E 023°36'0 0.0
2014-Dec-21 01:31N 38°02' E 023°36'0 0.0
2014-Dec-21 00:31N 38°02' E 023°36'0 0.0
2014-Dec-20 23:31N 38°02' E 023°36'0 0.0
2014-Dec-20 22:31N 38°02' E 023°36'3 2.5
2014-Dec-20 21:31N 38°01' E 023°32'0 0.0
2014-Dec-20 20:31N 38°01' E 023°32'0 0.0
2014-Dec-20 19:31N 38°01' E 023°32'0 0.0
2014-Dec-20 18:31N 38°01' E 023°32'0 0.0
2014-Dec-20 17:31N 38°01' E 023°32'0 0.0
2014-Dec-20 16:31N 38°01' E 023°32'0 0.0
2014-Dec-20 15:31N 38°02' E 023°32'0 0.0
2014-Dec-20 14:31N 38°02' E 023°32'0 0.0
2014-Dec-20 13:31N 38°02' E 023°32'0 0.0
2014-Dec-20 12:31N 38°02' E 023°32'0 0.4
2014-Dec-20 11:32N 38°02' E 023°32'0 0.0
2014-Dec-20 10:32N 38°02' E 023°32'0 0.0
2014-Dec-20 09:32N 38°02' E 023°32'0 0.0
2014-Dec-20 08:33N 38°02' E 023°32'0 0.0
2014-Dec-20 07:33N 38°02' E 023°32'0 0.0
2014-Dec-20 06:33N 38°02' E 023°32'0 0.0
2014-Dec-20 05:33N 38°02' E 023°32'0 0.0
2014-Dec-20 04:33N 38°02' E 023°32'0 0.0
2014-Dec-20 03:33N 38°02' E 023°32'0 0.0
2014-Dec-20 02:33N 38°02' E 023°32'0 0.0
2014-Dec-20 01:33N 38°02' E 023°32'0 0.0
2014-Dec-20 00:33N 38°02' E 023°32'0 0.0
2014-Dec-19 23:33N 38°02' E 023°32'0 0.0
2014-Dec-19 22:33N 38°02' E 023°32'0 0.0
2014-Dec-19 21:33N 38°02' E 023°32'0 0.0
2014-Dec-19 20:33N 38°02' E 023°32'0 0.0
2014-Dec-19 19:33N 38°02' E 023°32'0 0.0
2014-Dec-19 18:33N 38°02' E 023°32'0 0.0
2014-Dec-19 17:33N 38°02' E 023°32'0 0.0
2014-Dec-19 16:33N 38°02' E 023°32'0 0.3
2014-Dec-19 15:30N 38°02' E 023°32'0 0.0
2014-Dec-19 14:33N 38°02' E 023°32'0 0.5
2014-Dec-19 13:33N 38°01' E 023°33'6 6.3
2014-Dec-19 12:33N 37°55' E 023°36'1 1.4
2014-Dec-19 11:33N 37°54' E 023°35'3 3.2
2014-Dec-19 10:33N 37°57' E 023°34'0 0.0
2014-Dec-19 09:33N 37°57' E 023°34'0 0.1
2014-Dec-19 08:33N 37°57' E 023°34'0 0.0
2014-Dec-19 07:33N 37°57' E 023°34'0 0.0
2014-Dec-19 06:33N 37°57' E 023°34'0 0.0
2014-Dec-19 05:30N 37°57' E 023°34'0 0.0
2014-Dec-19 04:33N 37°57' E 023°34'0 0.0
2014-Dec-19 03:33N 37°57' E 023°34'0 0.0
2014-Dec-19 02:33N 37°57' E 023°34'0 0.0
2014-Dec-19 01:33N 37°57' E 023°34'0 0.0
2014-Dec-19 00:33N 37°57' E 023°34'0 0.0
2014-Dec-18 23:33N 37°57' E 023°34'0 0.0
2014-Dec-18 22:33N 37°57' E 023°34'0 0.0
2014-Dec-18 21:33N 37°57' E 023°34'0 0.0
2014-Dec-18 20:33N 37°57' E 023°34'0 0.0
2014-Dec-18 19:33N 37°57' E 023°34'0 0.0
2014-Dec-18 18:33N 37°57' E 023°34'0 0.0
2014-Dec-18 17:33N 37°57' E 023°34'0 0.0
2014-Dec-18 16:33N 37°57' E 023°34'0 0.0
2014-Dec-18 15:30N 37°57' E 023°34'0 0.0
2014-Dec-18 14:33N 37°57' E 023°34'0 0.0
2014-Dec-18 13:33N 37°57' E 023°34'  
Track history (hours):
 
Tides and Currents Weather Stations Pressure Air Temp Water Temp Dewpoint Dewpoint Depression Visibility Wind Speed Wind Dir Waves Ship Positions

Eviapetrol I

Last reported at 2014-Dec-22 06:29 UTC. Time now 2014-Dec-22 08:31 UTC.
Position N 37°38' E 023°60'.

Length 75 m; draft 4.5 m.

Type: Tanker. MMSI: 240285000.

Date/timePositionNaut miles runAvg speedWind from/ knotsBaromVisibWave heightAir tempDewpointWater temp
2014-Dec-22 06:29N 37°38' E 023°60'2 0.2
2014-Dec-21 20:08N 37°37' E 024°02'1 1.0
2014-Dec-21 19:33N 37°37' E 024°03'9 9.3
2014-Dec-21 18:32N 37°38' E 023°51'9 9.3
2014-Dec-21 17:33N 37°42' E 023°41'10 9.7
2014-Dec-21 16:34N 37°51' E 023°36'8 7.8
2014-Dec-21 15:33N 37°59' E 023°33'2 2.3
2014-Dec-21 14:33N 38°01' E 023°33'2 2.2
2014-Dec-21 13:31N 38°02' E 023°36'0 0.0
2014-Dec-21 12:31N 38°02' E 023°36'0 0.0
2014-Dec-21 11:28N 38°02' E 023°36'0 0.0
2014-Dec-21 10:31N 38°02' E 023°36'0 0.0
2014-Dec-21 09:28N 38°02' E 023°36'0 0.0
2014-Dec-21 08:31N 38°02' E 023°36'0 0.0
2014-Dec-21 07:28N 38°02' E 023°36'0 0.0
2014-Dec-21 06:31N 38°02' E 023°36'0 0.0
2014-Dec-21 05:31N 38°02' E 023°36'0 0.0
2014-Dec-21 04:28N 38°02' E 023°36'0 0.0
2014-Dec-21 03:31N 38°02' E 023°36'0 0.0
2014-Dec-21 02:31N 38°02' E 023°36'0 0.0
2014-Dec-21 01:31N 38°02' E 023°36'0 0.0
2014-Dec-21 00:31N 38°02' E 023°36'0 0.0
2014-Dec-20 23:31N 38°02' E 023°36'0 0.0
2014-Dec-20 22:31N 38°02' E 023°36'3 2.5
2014-Dec-20 21:31N 38°01' E 023°32'0 0.0
2014-Dec-20 20:31N 38°01' E 023°32'0 0.0
2014-Dec-20 19:31N 38°01' E 023°32'0 0.0
2014-Dec-20 18:31N 38°01' E 023°32'0 0.0
2014-Dec-20 17:31N 38°01' E 023°32'0 0.0
2014-Dec-20 16:31N 38°01' E 023°32'0 0.0
2014-Dec-20 15:31N 38°02' E 023°32'0 0.0
2014-Dec-20 14:31N 38°02' E 023°32'0 0.0
2014-Dec-20 13:31N 38°02' E 023°32'0 0.0
2014-Dec-20 12:31N 38°02' E 023°32'0 0.4
2014-Dec-20 11:32N 38°02' E 023°32'0 0.0
2014-Dec-20 10:32N 38°02' E 023°32'0 0.0
2014-Dec-20 09:32N 38°02' E 023°32'0 0.0
2014-Dec-20 08:33N 38°02' E 023°32'0 0.0
2014-Dec-20 07:33N 38°02' E 023°32'0 0.0
2014-Dec-20 06:33N 38°02' E 023°32'0 0.0
2014-Dec-20 05:33N 38°02' E 023°32'0 0.0
2014-Dec-20 04:33N 38°02' E 023°32'0 0.0
2014-Dec-20 03:33N 38°02' E 023°32'0 0.0
2014-Dec-20 02:33N 38°02' E 023°32'0 0.0
2014-Dec-20 01:33N 38°02' E 023°32'0 0.0
2014-Dec-20 00:33N 38°02' E 023°32'0 0.0
2014-Dec-19 23:33N 38°02' E 023°32'0 0.0
2014-Dec-19 22:33N 38°02' E 023°32'0 0.0
2014-Dec-19 21:33N 38°02' E 023°32'0 0.0
2014-Dec-19 20:33N 38°02' E 023°32'0 0.0
2014-Dec-19 19:33N 38°02' E 023°32'0 0.0
2014-Dec-19 18:33N 38°02' E 023°32'0 0.0
2014-Dec-19 17:33N 38°02' E 023°32'0 0.0
2014-Dec-19 16:33N 38°02' E 023°32'0 0.3
2014-Dec-19 15:30N 38°02' E 023°32'0 0.0
2014-Dec-19 14:33N 38°02' E 023°32'0 0.5
2014-Dec-19 13:33N 38°01' E 023°33'6 6.3
2014-Dec-19 12:33N 37°55' E 023°36'1 1.4
2014-Dec-19 11:33N 37°54' E 023°35'3 3.2
2014-Dec-19 10:33N 37°57' E 023°34'0 0.0
2014-Dec-19 09:33N 37°57' E 023°34'0 0.1
2014-Dec-19 08:33N 37°57' E 023°34'0 0.0
2014-Dec-19 07:33N 37°57' E 023°34'0 0.0
2014-Dec-19 06:33N 37°57' E 023°34'0 0.0
2014-Dec-19 05:30N 37°57' E 023°34'0 0.0
2014-Dec-19 04:33N 37°57' E 023°34'0 0.0
2014-Dec-19 03:33N 37°57' E 023°34'0 0.0
2014-Dec-19 02:33N 37°57' E 023°34'0 0.0
2014-Dec-19 01:33N 37°57' E 023°34'0 0.0
2014-Dec-19 00:33N 37°57' E 023°34'0 0.0
2014-Dec-18 23:33N 37°57' E 023°34'0 0.0
2014-Dec-18 22:33N 37°57' E 023°34'0 0.0
2014-Dec-18 21:33N 37°57' E 023°34'0 0.0
2014-Dec-18 20:33N 37°57' E 023°34'0 0.0
2014-Dec-18 19:33N 37°57' E 023°34'0 0.0
2014-Dec-18 18:33N 37°57' E 023°34'0 0.0
2014-Dec-18 17:33N 37°57' E 023°34'0 0.0
2014-Dec-18 16:33N 37°57' E 023°34'0 0.0
2014-Dec-18 15:30N 37°57' E 023°34'0 0.0
2014-Dec-18 14:33N 37°57' E 023°34'0 0.0
2014-Dec-18 13:33N 37°57' E 023°34'  

Dump ship's entire track history